sensor_id;sensor_type;location;lat;lon;timestamp;pressure;altitude;pressure_sealevel;temperature;humidity
49583;BME280;36329;48.816;44.624;2023-04-30T00:00:39;100039;;;16.8;100
49583;BME280;36329;48.816;44.624;2023-04-30T00:03:41;100042;;;16.6;100
49583;BME280;36329;48.816;44.624;2023-04-30T00:06:43;100043;;;16.6;100
49583;BME280;36329;48.816;44.624;2023-04-30T00:09:45;100044;;;16.5;100
49583;BME280;36329;48.816;44.624;2023-04-30T00:12:47;100045;;;16.6;100
49583;BME280;36329;48.816;44.624;2023-04-30T00:15:49;100056;;;16.5;100
49583;BME280;36329;48.816;44.624;2023-04-30T00:18:51;100059;;;16.4;100
49583;BME280;36329;48.816;44.624;2023-04-30T00:21:53;100053;;;16.5;100
49583;BME280;36329;48.816;44.624;2023-04-30T00:24:55;100053;;;16.4;100
49583;BME280;36329;48.816;44.624;2023-04-30T00:27:57;100046;;;16.3;100
49583;BME280;36329;48.816;44.624;2023-04-30T00:30:59;100046;;;16.1;100
49583;BME280;36329;48.816;44.624;2023-04-30T00:34:02;100038;;;16.3;100
49583;BME280;36329;48.816;44.624;2023-04-30T00:37:04;100034;;;16.2;100
49583;BME280;36329;48.816;44.624;2023-04-30T00:40:06;100030;;;16.4;100
49583;BME280;36329;48.816;44.624;2023-04-30T00:43:09;100036;;;16.4;100
49583;BME280;36329;48.816;44.624;2023-04-30T00:46:11;100033;;;16.4;100
49583;BME280;36329;48.816;44.624;2023-04-30T00:49:13;100029;;;16.5;100
49583;BME280;36329;48.816;44.624;2023-04-30T00:52:15;100028;;;16.3;100
49583;BME280;36329;48.816;44.624;2023-04-30T00:55:17;100016;;;16.4;100
49583;BME280;36329;48.816;44.624;2023-04-30T00:58:19;100016;;;16.4;100
49583;BME280;36329;48.816;44.624;2023-04-30T01:01:21;100027;;;16.4;100
49583;BME280;36329;48.816;44.624;2023-04-30T01:04:23;100029;;;16.5;100
49583;BME280;36329;48.816;44.624;2023-04-30T01:07:26;100026;;;16.5;100
49583;BME280;36329;48.816;44.624;2023-04-30T01:10:32;100016;;;16.5;100
49583;BME280;36329;48.816;44.624;2023-04-30T01:13:41;100010;;;16.6;100
49583;BME280;36329;48.816;44.624;2023-04-30T01:16:50;100009;;;16.6;100
49583;BME280;36329;48.816;44.624;2023-04-30T01:19:54;100005;;;16.4;100
49583;BME280;36329;48.816;44.624;2023-04-30T01:23:10;100002;;;16.4;100
49583;BME280;36329;48.816;44.624;2023-04-30T01:26:22;99989;;;16.4;100
49583;BME280;36329;48.816;44.624;2023-04-30T01:29:31;99981;;;16.4;100
49583;BME280;36329;48.816;44.624;2023-04-30T01:32:35;99978;;;16.6;100
49583;BME280;36329;48.816;44.624;2023-04-30T01:35:55;99985;;;16.8;100
49583;BME280;36329;48.816;44.624;2023-04-30T01:39:07;99986;;;16.7;100
49583;BME280;36329;48.816;44.624;2023-04-30T01:42:19;99994;;;16.5;100
49583;BME280;36329;48.816;44.624;2023-04-30T01:45:30;99991;;;16.4;100
49583;BME280;36329;48.816;44.624;2023-04-30T01:48:39;99993;;;16.5;100
49583;BME280;36329;48.816;44.624;2023-04-30T01:51:45;99995;;;16.4;100
49583;BME280;36329;48.816;44.624;2023-04-30T01:54:52;99995;;;16.5;100
49583;BME280;36329;48.816;44.624;2023-04-30T01:57:58;99993;;;16.4;100
49583;BME280;36329;48.816;44.624;2023-04-30T02:01:00;99983;;;16.3;100
49583;BME280;36329;48.816;44.624;2023-04-30T02:04:02;99981;;;16.5;100
49583;BME280;36329;48.816;44.624;2023-04-30T02:07:04;99984;;;16.5;100
49583;BME280;36329;48.816;44.624;2023-04-30T02:10:07;99990;;;16.6;100
49583;BME280;36329;48.816;44.624;2023-04-30T02:13:09;99994;;;16.5;100
49583;BME280;36329;48.816;44.624;2023-04-30T02:16:11;100001;;;16.5;100
49583;BME280;36329;48.816;44.624;2023-04-30T02:19:13;100004;;;16.5;100
49583;BME280;36329;48.816;44.624;2023-04-30T02:22:15;100002;;;16.6;100
49583;BME280;36329;48.816;44.624;2023-04-30T02:25:17;100005;;;16.7;100
49583;BME280;36329;48.816;44.624;2023-04-30T02:28:19;100003;;;16.7;100
49583;BME280;36329;48.816;44.624;2023-04-30T02:31:21;100004;;;16.8;100
49583;BME280;36329;48.816;44.624;2023-04-30T02:34:23;100016;;;16.8;100
49583;BME280;36329;48.816;44.624;2023-04-30T02:37:25;100019;;;16.7;100
49583;BME280;36329;48.816;44.624;2023-04-30T02:40:27;100013;;;16.5;100
49583;BME280;36329;48.816;44.624;2023-04-30T02:43:29;100015;;;16.5;100
49583;BME280;36329;48.816;44.624;2023-04-30T02:46:31;100016;;;16.2;100
49583;BME280;36329;48.816;44.624;2023-04-30T02:49:33;100007;;;16.5;100
49583;BME280;36329;48.816;44.624;2023-04-30T02:52:35;100001;;;16.3;100
49583;BME280;36329;48.816;44.624;2023-04-30T02:55:37;100001;;;16.4;100
49583;BME280;36329;48.816;44.624;2023-04-30T02:58:39;99997;;;16.4;100
49583;BME280;36329;48.816;44.624;2023-04-30T03:01:41;99999;;;16.2;100
49583;BME280;36329;48.816;44.624;2023-04-30T03:04:43;99998;;;16.2;100
49583;BME280;36329;48.816;44.624;2023-04-30T03:07:45;99991;;;16.3;100
49583;BME280;36329;48.816;44.624;2023-04-30T03:10:47;99988;;;16.2;100
49583;BME280;36329;48.816;44.624;2023-04-30T03:13:49;99995;;;16.3;100
49583;BME280;36329;48.816;44.624;2023-04-30T03:16:51;99993;;;16.3;100
49583;BME280;36329;48.816;44.624;2023-04-30T03:19:53;99994;;;16.5;100
49583;BME280;36329;48.816;44.624;2023-04-30T03:22:54;99992;;;16.6;100
49583;BME280;36329;48.816;44.624;2023-04-30T03:25:56;100002;;;16.3;100
49583;BME280;36329;48.816;44.624;2023-04-30T03:28:58;100003;;;16.1;100
49583;BME280;36329;48.816;44.624;2023-04-30T03:32:00;99996;;;16.2;100
49583;BME280;36329;48.816;44.624;2023-04-30T03:35:03;100000;;;16.3;100
49583;BME280;36329;48.816;44.624;2023-04-30T03:38:05;99999;;;16.2;100
49583;BME280;36329;48.816;44.624;2023-04-30T03:41:07;100003;;;16.5;100
49583;BME280;36329;48.816;44.624;2023-04-30T03:44:09;100006;;;16.6;100
49583;BME280;36329;48.816;44.624;2023-04-30T03:47:11;100004;;;16.3;100
49583;BME280;36329;48.816;44.624;2023-04-30T03:50:13;100003;;;16.2;100
49583;BME280;36329;48.816;44.624;2023-04-30T03:53:17;100006;;;16.4;100
49583;BME280;36329;48.816;44.624;2023-04-30T03:56:19;100010;;;16.6;100
49583;BME280;36329;48.816;44.624;2023-04-30T03:59:21;100011;;;16.5;100
49583;BME280;36329;48.816;44.624;2023-04-30T04:02:23;100018;;;16.1;100
49583;BME280;36329;48.816;44.624;2023-04-30T04:05:26;100009;;;15.9;100
49583;BME280;36329;48.816;44.624;2023-04-30T04:08:28;100010;;;15.9;100
49583;BME280;36329;48.816;44.624;2023-04-30T04:11:30;100004;;;16;100
49583;BME280;36329;48.816;44.624;2023-04-30T04:14:32;100008;;;15.9;100
49583;BME280;36329;48.816;44.624;2023-04-30T04:17:34;100006;;;15.6;100
49583;BME280;36329;48.816;44.624;2023-04-30T04:20:36;100004;;;15.9;100
49583;BME280;36329;48.816;44.624;2023-04-30T04:23:38;100006;;;15.7;100
49583;BME280;36329;48.816;44.624;2023-04-30T04:26:39;100016;;;15.7;100
49583;BME280;36329;48.816;44.624;2023-04-30T04:29:42;100015;;;15.7;100
49583;BME280;36329;48.816;44.624;2023-04-30T04:32:45;100009;;;15.9;100
49583;BME280;36329;48.816;44.624;2023-04-30T04:35:46;100008;;;16.2;100
49583;BME280;36329;48.816;44.624;2023-04-30T04:38:48;100009;;;16;100
49583;BME280;36329;48.816;44.624;2023-04-30T04:41:50;100013;;;16.1;100
49583;BME280;36329;48.816;44.624;2023-04-30T04:44:52;100014;;;16.4;100
49583;BME280;36329;48.816;44.624;2023-04-30T04:47:54;100016;;;16.3;100
49583;BME280;36329;48.816;44.624;2023-04-30T04:50:56;100018;;;16.5;100
49583;BME280;36329;48.816;44.624;2023-04-30T04:53:58;100012;;;16.4;100
49583;BME280;36329;48.816;44.624;2023-04-30T04:57:00;100012;;;16.6;100
49583;BME280;36329;48.816;44.624;2023-04-30T05:00:02;100013;;;16.4;100
49583;BME280;36329;48.816;44.624;2023-04-30T05:03:07;100011;;;16.7;100
49583;BME280;36329;48.816;44.624;2023-04-30T05:06:09;100009;;;16.8;100
49583;BME280;36329;48.816;44.624;2023-04-30T05:09:11;100014;;;16.6;100
49583;BME280;36329;48.816;44.624;2023-04-30T05:12:13;100014;;;16.4;100
49583;BME280;36329;48.816;44.624;2023-04-30T05:15:15;100010;;;16.2;100
49583;BME280;36329;48.816;44.624;2023-04-30T05:18:18;100018;;;16.4;100
49583;BME280;36329;48.816;44.624;2023-04-30T05:21:20;100025;;;16.8;100
49583;BME280;36329;48.816;44.624;2023-04-30T05:24:22;100036;;;16.7;100
49583;BME280;36329;48.816;44.624;2023-04-30T05:27:24;100032;;;16.5;100
49583;BME280;36329;48.816;44.624;2023-04-30T05:30:26;100037;;;16.7;100
49583;BME280;36329;48.816;44.624;2023-04-30T05:33:28;100051;;;16.9;100
49583;BME280;36329;48.816;44.624;2023-04-30T05:36:30;100050;;;16.5;100
49583;BME280;36329;48.816;44.624;2023-04-30T05:39:32;100042;;;16.6;100
49583;BME280;36329;48.816;44.624;2023-04-30T05:42:36;100032;;;16.3;100
49583;BME280;36329;48.816;44.624;2023-04-30T05:45:37;100031;;;16.3;100
49583;BME280;36329;48.816;44.624;2023-04-30T05:48:39;100044;;;16.2;100
49583;BME280;36329;48.816;44.624;2023-04-30T05:51:41;100063;;;15.9;100
49583;BME280;36329;48.816;44.624;2023-04-30T05:54:43;100054;;;16;100
49583;BME280;36329;48.816;44.624;2023-04-30T05:57:45;100042;;;16.1;100
49583;BME280;36329;48.816;44.624;2023-04-30T06:00:48;100045;;;16.2;100
49583;BME280;36329;48.816;44.624;2023-04-30T06:03:50;100060;;;15.9;100
49583;BME280;36329;48.816;44.624;2023-04-30T06:06:52;100057;;;15.9;100
49583;BME280;36329;48.816;44.624;2023-04-30T06:09:56;100043;;;16.2;100
49583;BME280;36329;48.816;44.624;2023-04-30T06:12:58;100048;;;16.3;100
49583;BME280;36329;48.816;44.624;2023-04-30T06:16:00;100057;;;16.2;100
49583;BME280;36329;48.816;44.624;2023-04-30T06:19:02;100040;;;16.3;100
49583;BME280;36329;48.816;44.624;2023-04-30T06:22:04;100047;;;16.2;100
49583;BME280;36329;48.816;44.624;2023-04-30T06:25:06;100067;;;16.5;100
49583;BME280;36329;48.816;44.624;2023-04-30T06:28:09;100092;;;16.3;100
49583;BME280;36329;48.816;44.624;2023-04-30T06:31:11;100083;;;16.6;100
49583;BME280;36329;48.816;44.624;2023-04-30T06:34:13;100082;;;16.7;100
49583;BME280;36329;48.816;44.624;2023-04-30T06:37:15;100081;;;16.6;100
49583;BME280;36329;48.816;44.624;2023-04-30T06:40:17;100091;;;16.4;100
49583;BME280;36329;48.816;44.624;2023-04-30T06:43:19;100090;;;16;100
49583;BME280;36329;48.816;44.624;2023-04-30T06:46:21;100093;;;16.1;100
49583;BME280;36329;48.816;44.624;2023-04-30T06:49:23;100100;;;16.1;100
49583;BME280;36329;48.816;44.624;2023-04-30T06:52:25;100118;;;16.4;100
49583;BME280;36329;48.816;44.624;2023-04-30T06:55:27;100129;;;16.2;100
49583;BME280;36329;48.816;44.624;2023-04-30T06:58:29;100130;;;16.4;100
49583;BME280;36329;48.816;44.624;2023-04-30T07:01:31;100126;;;16.1;100
49583;BME280;36329;48.816;44.624;2023-04-30T07:04:34;100112;;;16.3;100
49583;BME280;36329;48.816;44.624;2023-04-30T07:07:36;100119;;;16.4;100
49583;BME280;36329;48.816;44.624;2023-04-30T07:10:38;100122;;;16.1;100
49583;BME280;36329;48.816;44.624;2023-04-30T07:13:40;100141;;;16.3;100
49583;BME280;36329;48.816;44.624;2023-04-30T07:16:42;100131;;;16.3;100
49583;BME280;36329;48.816;44.624;2023-04-30T07:19:44;100129;;;16.2;100
49583;BME280;36329;48.816;44.624;2023-04-30T07:22:46;100124;;;16.3;100
49583;BME280;36329;48.816;44.624;2023-04-30T07:25:48;100141;;;16.3;100
49583;BME280;36329;48.816;44.624;2023-04-30T07:28:50;100139;;;16.4;100
49583;BME280;36329;48.816;44.624;2023-04-30T07:31:52;100150;;;16.5;100
49583;BME280;36329;48.816;44.624;2023-04-30T07:34:54;100152;;;16.6;100
49583;BME280;36329;48.816;44.624;2023-04-30T07:37:56;100160;;;16.8;100
49583;BME280;36329;48.816;44.624;2023-04-30T07:40:58;100154;;;16.8;100
49583;BME280;36329;48.816;44.624;2023-04-30T07:43:59;100151;;;17.1;100
49583;BME280;36329;48.816;44.624;2023-04-30T07:47:01;100150;;;17.3;100
49583;BME280;36329;48.816;44.624;2023-04-30T07:50:04;100163;;;17.2;100
49583;BME280;36329;48.816;44.624;2023-04-30T07:53:06;100154;;;17.6;100
49583;BME280;36329;48.816;44.624;2023-04-30T07:56:08;100156;;;17.3;100
49583;BME280;36329;48.816;44.624;2023-04-30T07:59:10;100147;;;17.1;100
49583;BME280;36329;48.816;44.624;2023-04-30T08:02:12;100147;;;17.1;100
49583;BME280;36329;48.816;44.624;2023-04-30T08:05:14;100145;;;17.5;100
49583;BME280;36329;48.816;44.624;2023-04-30T08:08:16;100138;;;17.7;100
49583;BME280;36329;48.816;44.624;2023-04-30T08:11:20;100120;;;18.2;100
49583;BME280;36329;48.816;44.624;2023-04-30T08:14:22;100122;;;18.7;100
49583;BME280;36329;48.816;44.624;2023-04-30T08:17:24;100114;;;20;100
49583;BME280;36329;48.816;44.624;2023-04-30T08:20:26;100106;;;20.5;93.8
49583;BME280;36329;48.816;44.624;2023-04-30T08:23:28;100112;;;21.8;86.6
49583;BME280;36329;48.816;44.624;2023-04-30T08:26:30;100115;;;21.3;86
49583;BME280;36329;48.816;44.624;2023-04-30T08:29:32;100113;;;21.8;85.1
49583;BME280;36329;48.816;44.624;2023-04-30T08:32:34;100104;;;22.5;79.9
49583;BME280;36329;48.816;44.624;2023-04-30T08:35:36;100106;;;22.8;79.7
49583;BME280;36329;48.816;44.624;2023-04-30T08:38:38;100116;;;22.8;80
49583;BME280;36329;48.816;44.624;2023-04-30T08:41:44;100108;;;23;78.9
49583;BME280;36329;48.816;44.624;2023-04-30T08:44:47;100107;;;22.7;78.8
49583;BME280;36329;48.816;44.624;2023-04-30T08:47:51;100105;;;22.5;80.8
49583;BME280;36329;48.816;44.624;2023-04-30T08:50:53;100125;;;21.8;80.4
49583;BME280;36329;48.816;44.624;2023-04-30T08:53:56;100113;;;21;88.2
49583;BME280;36329;48.816;44.624;2023-04-30T08:56:58;100115;;;21;87.5
49583;BME280;36329;48.816;44.624;2023-04-30T09:00:00;100117;;;21.1;87.6
49583;BME280;36329;48.816;44.624;2023-04-30T09:03:03;100111;;;21.3;87.4
49583;BME280;36329;48.816;44.624;2023-04-30T09:06:05;100116;;;21.5;87.7
49583;BME280;36329;48.816;44.624;2023-04-30T09:09:11;100123;;;21.3;87.6
49583;BME280;36329;48.816;44.624;2023-04-30T09:12:15;100123;;;21.1;88.7
49583;BME280;36329;48.816;44.624;2023-04-30T09:15:17;100120;;;21.5;85.6
49583;BME280;36329;48.816;44.624;2023-04-30T09:18:19;100132;;;22;85
49583;BME280;36329;48.816;44.624;2023-04-30T09:21:30;100136;;;21.6;87
49583;BME280;36329;48.816;44.624;2023-04-30T09:24:44;100126;;;21.3;87.2
49583;BME280;36329;48.816;44.624;2023-04-30T09:27:47;100125;;;22.3;82.3
49583;BME280;36329;48.816;44.624;2023-04-30T09:30:50;100115;;;22.6;79.7
49583;BME280;36329;48.816;44.624;2023-04-30T09:33:52;100130;;;22.8;78.7
49583;BME280;36329;48.816;44.624;2023-04-30T09:36:56;100156;;;22.2;81.3
49583;BME280;36329;48.816;44.624;2023-04-30T09:39:58;100172;;;21.9;81.1
49583;BME280;36329;48.816;44.624;2023-04-30T09:43:00;100187;;;21.7;82.3
49583;BME280;36329;48.816;44.624;2023-04-30T09:46:02;100186;;;21.8;83.3
49583;BME280;36329;48.816;44.624;2023-04-30T09:49:05;100202;;;21.3;83
49583;BME280;36329;48.816;44.624;2023-04-30T09:52:07;100196;;;21.5;82.2
49583;BME280;36329;48.816;44.624;2023-04-30T09:55:09;100200;;;21.1;84.5
49583;BME280;36329;48.816;44.624;2023-04-30T09:58:12;100217;;;21.4;83.7
49583;BME280;36329;48.816;44.624;2023-04-30T10:01:15;100210;;;21.1;86.4
49583;BME280;36329;48.816;44.624;2023-04-30T10:04:19;100210;;;21.4;82.1
49583;BME280;36329;48.816;44.624;2023-04-30T10:07:24;100212;;;21.6;85.8
49583;BME280;36329;48.816;44.624;2023-04-30T10:10:31;100212;;;21.4;82.1
49583;BME280;36329;48.816;44.624;2023-04-30T10:13:39;100199;;;21.2;82.9
49583;BME280;36329;48.816;44.624;2023-04-30T10:16:50;100207;;;21.3;85.7
49583;BME280;36329;48.816;44.624;2023-04-30T10:20:00;100217;;;21.4;83
49583;BME280;36329;48.816;44.624;2023-04-30T10:23:05;100229;;;21.5;82.4
49583;BME280;36329;48.816;44.624;2023-04-30T10:26:07;100207;;;21.8;81.9
49583;BME280;36329;48.816;44.624;2023-04-30T10:29:09;100204;;;22;80.9
49583;BME280;36329;48.816;44.624;2023-04-30T10:32:14;100215;;;21.6;81.8
49583;BME280;36329;48.816;44.624;2023-04-30T10:35:19;100209;;;21.2;83.4
49583;BME280;36329;48.816;44.624;2023-04-30T10:38:23;100211;;;21.5;83.9
49583;BME280;36329;48.816;44.624;2023-04-30T10:41:26;100220;;;22.2;82.6
49583;BME280;36329;48.816;44.624;2023-04-30T10:44:31;100247;;;22.3;79.2
49583;BME280;36329;48.816;44.624;2023-04-30T10:47:33;100264;;;21.3;82.1
49583;BME280;36329;48.816;44.624;2023-04-30T10:50:39;100263;;;21.6;83
49583;BME280;36329;48.816;44.624;2023-04-30T10:53:42;100276;;;21.5;81.6
49583;BME280;36329;48.816;44.624;2023-04-30T10:56:44;100289;;;21.4;82
49583;BME280;36329;48.816;44.624;2023-04-30T10:59:51;100304;;;21.4;83.7
49583;BME280;36329;48.816;44.624;2023-04-30T11:02:57;100316;;;21;84.3
49583;BME280;36329;48.816;44.624;2023-04-30T11:06:00;100317;;;20.6;88.2
49583;BME280;36329;48.816;44.624;2023-04-30T11:09:09;100297;;;20.1;89.2
49583;BME280;36329;48.816;44.624;2023-04-30T11:12:12;100239;;;20.3;87.7
49583;BME280;36329;48.816;44.624;2023-04-30T11:15:16;100223;;;20.5;87.4
49583;BME280;36329;48.816;44.624;2023-04-30T11:18:19;100231;;;20.6;87.8
49583;BME280;36329;48.816;44.624;2023-04-30T11:21:21;100244;;;20.6;88.4
49583;BME280;36329;48.816;44.624;2023-04-30T11:27:55;100272;;;20.2;88.5
49583;BME280;36329;48.816;44.624;2023-04-30T11:30:58;100285;;;20.2;89.5
49583;BME280;36329;48.816;44.624;2023-04-30T11:34:00;100287;;;20.3;88.1
49583;BME280;36329;48.816;44.624;2023-04-30T11:37:02;100265;;;20.2;88
49583;BME280;36329;48.816;44.624;2023-04-30T11:40:05;100247;;;20.1;89.5
49583;BME280;36329;48.816;44.624;2023-04-30T11:43:19;100234;;;20.2;89.3
49583;BME280;36329;48.816;44.624;2023-04-30T11:46:22;100239;;;20.2;89.8
49583;BME280;36329;48.816;44.624;2023-04-30T11:49:24;100253;;;20.1;88.9
49583;BME280;36329;48.816;44.624;2023-04-30T11:52:27;100255;;;20.1;90.4
49583;BME280;36329;48.816;44.624;2023-04-30T11:55:29;100278;;;20;89.5
49583;BME280;36329;48.816;44.624;2023-04-30T11:58:34;100263;;;19.7;92
49583;BME280;36329;48.816;44.624;2023-04-30T12:01:37;100257;;;20;92.2
49583;BME280;36329;48.816;44.624;2023-04-30T12:04:41;100261;;;20.2;90.9
49583;BME280;36329;48.816;44.624;2023-04-30T12:07:44;100273;;;20.3;90.2
49583;BME280;36329;48.816;44.624;2023-04-30T12:10:46;100288;;;20;90.2
49583;BME280;36329;48.816;44.624;2023-04-30T12:13:49;100302;;;19.9;93.4
49583;BME280;36329;48.816;44.624;2023-04-30T12:16:52;100306;;;19.5;94.4
49583;BME280;36329;48.816;44.624;2023-04-30T12:19:54;100326;;;19;98.9
49583;BME280;36329;48.816;44.624;2023-04-30T12:22:56;100270;;;19.1;100
49583;BME280;36329;48.816;44.624;2023-04-30T12:25:58;100272;;;19;99.6
49583;BME280;36329;48.816;44.624;2023-04-30T12:29:02;100292;;;18.5;100
49583;BME280;36329;48.816;44.624;2023-04-30T12:32:04;100284;;;18.6;100
49583;BME280;36329;48.816;44.624;2023-04-30T12:35:07;100296;;;18.6;100
49583;BME280;36329;48.816;44.624;2023-04-30T12:38:09;100296;;;18.7;100
49583;BME280;36329;48.816;44.624;2023-04-30T12:41:11;100292;;;18.7;100
49583;BME280;36329;48.816;44.624;2023-04-30T12:44:13;100298;;;18.8;100
49583;BME280;36329;48.816;44.624;2023-04-30T12:47:15;100293;;;18.7;100
49583;BME280;36329;48.816;44.624;2023-04-30T12:50:17;100306;;;18.7;100
49583;BME280;36329;48.816;44.624;2023-04-30T12:53:19;100317;;;18.7;100
49583;BME280;36329;48.816;44.624;2023-04-30T12:56:21;100328;;;18.2;100
49583;BME280;36329;48.816;44.624;2023-04-30T12:59:23;100322;;;18.2;100
49583;BME280;36329;48.816;44.624;2023-04-30T13:02:28;100321;;;18.3;100
49583;BME280;36329;48.816;44.624;2023-04-30T13:05:30;100323;;;18.4;100
49583;BME280;36329;48.816;44.624;2023-04-30T13:08:32;100314;;;18.5;100
49583;BME280;36329;48.816;44.624;2023-04-30T13:11:35;100305;;;18.6;99.2
49583;BME280;36329;48.816;44.624;2023-04-30T13:14:37;100292;;;18.7;98.2
49583;BME280;36329;48.816;44.624;2023-04-30T13:17:39;100278;;;19;98.7
49583;BME280;36329;48.816;44.624;2023-04-30T13:20:41;100277;;;18.8;94.8
49583;BME280;36329;48.816;44.624;2023-04-30T13:23:43;100272;;;18.5;96.8
49583;BME280;36329;48.816;44.624;2023-04-30T13:26:45;100274;;;18.4;97.3
49583;BME280;36329;48.816;44.624;2023-04-30T13:29:47;100278;;;18.4;97.8
49583;BME280;36329;48.816;44.624;2023-04-30T13:32:49;100273;;;18.5;97.6
49583;BME280;36329;48.816;44.624;2023-04-30T13:35:51;100280;;;18.6;97.2
49583;BME280;36329;48.816;44.624;2023-04-30T13:38:53;100285;;;18.7;94.9
49583;BME280;36329;48.816;44.624;2023-04-30T13:41:55;100281;;;18.9;94.5
49583;BME280;36329;48.816;44.624;2023-04-30T13:44:57;100274;;;19;93.3
49583;BME280;36329;48.816;44.624;2023-04-30T13:47:59;100275;;;18.9;91.6
49583;BME280;36329;48.816;44.624;2023-04-30T13:51:00;100279;;;18.8;93.8
49583;BME280;36329;48.816;44.624;2023-04-30T13:54:02;100285;;;18.8;92
49583;BME280;36329;48.816;44.624;2023-04-30T13:57:05;100285;;;18.8;91.7
49583;BME280;36329;48.816;44.624;2023-04-30T14:00:07;100278;;;18.9;87.9
49583;BME280;36329;48.816;44.624;2023-04-30T14:03:11;100281;;;18.8;86.7
49583;BME280;36329;48.816;44.624;2023-04-30T14:06:13;100276;;;18.9;86.2
49583;BME280;36329;48.816;44.624;2023-04-30T14:09:15;100274;;;19;87.3
49583;BME280;36329;48.816;44.624;2023-04-30T14:12:17;100263;;;19;88
49583;BME280;36329;48.816;44.624;2023-04-30T14:15:19;100250;;;18.9;88.8
49583;BME280;36329;48.816;44.624;2023-04-30T14:18:21;100252;;;18.8;90.8
49583;BME280;36329;48.816;44.624;2023-04-30T14:21:23;100251;;;19;90.6
49583;BME280;36329;48.816;44.624;2023-04-30T14:24:25;100252;;;18.9;90.3
49583;BME280;36329;48.816;44.624;2023-04-30T14:27:27;100249;;;18.7;90.4
49583;BME280;36329;48.816;44.624;2023-04-30T14:30:29;100253;;;18.6;90.9
49583;BME280;36329;48.816;44.624;2023-04-30T14:33:31;100244;;;18.6;90.8
49583;BME280;36329;48.816;44.624;2023-04-30T14:36:35;100244;;;18.9;89.8
49583;BME280;36329;48.816;44.624;2023-04-30T14:39:37;100244;;;18.7;90.1
49583;BME280;36329;48.816;44.624;2023-04-30T14:42:39;100251;;;18.6;91.4
49583;BME280;36329;48.816;44.624;2023-04-30T14:45:41;100257;;;18.7;90.6
49583;BME280;36329;48.816;44.624;2023-04-30T14:48:43;100278;;;18.5;92.1
49583;BME280;36329;48.816;44.624;2023-04-30T14:51:45;100278;;;18.7;91.3
49583;BME280;36329;48.816;44.624;2023-04-30T14:54:47;100283;;;18.8;90.5
49583;BME280;36329;48.816;44.624;2023-04-30T14:57:49;100290;;;18.8;90.2
49583;BME280;36329;48.816;44.624;2023-04-30T15:00:51;100291;;;18.9;88.8
49583;BME280;36329;48.816;44.624;2023-04-30T15:03:53;100295;;;18.9;88.8
49583;BME280;36329;48.816;44.624;2023-04-30T15:06:55;100307;;;18.6;87.8
49583;BME280;36329;48.816;44.624;2023-04-30T15:09:57;100311;;;18.6;86.6
49583;BME280;36329;48.816;44.624;2023-04-30T15:12:59;100320;;;18.7;85.8
49583;BME280;36329;48.816;44.624;2023-04-30T15:16:01;100324;;;18.6;84.4
49583;BME280;36329;48.816;44.624;2023-04-30T15:19:03;100326;;;18.5;82.1
49583;BME280;36329;48.816;44.624;2023-04-30T15:22:05;100320;;;18.5;83
49583;BME280;36329;48.816;44.624;2023-04-30T15:25:07;100313;;;18.3;82.7
49583;BME280;36329;48.816;44.624;2023-04-30T15:28:09;100314;;;18.3;85.2
49583;BME280;36329;48.816;44.624;2023-04-30T15:31:11;100328;;;18.4;84.4
49583;BME280;36329;48.816;44.624;2023-04-30T15:34:15;100332;;;18.3;82.2
49583;BME280;36329;48.816;44.624;2023-04-30T15:37:17;100341;;;18.3;83.6
49583;BME280;36329;48.816;44.624;2023-04-30T15:40:19;100349;;;18.3;84
49583;BME280;36329;48.816;44.624;2023-04-30T15:43:20;100345;;;18.2;84.5
49583;BME280;36329;48.816;44.624;2023-04-30T15:46:22;100356;;;18.2;85.1
49583;BME280;36329;48.816;44.624;2023-04-30T15:49:24;100365;;;18.1;84.2
49583;BME280;36329;48.816;44.624;2023-04-30T15:52:26;100361;;;18.2;84.1
49583;BME280;36329;48.816;44.624;2023-04-30T15:55:28;100357;;;18;85.3
49583;BME280;36329;48.816;44.624;2023-04-30T15:58:30;100350;;;18;85.6
49583;BME280;36329;48.816;44.624;2023-04-30T16:01:32;100345;;;17.9;88.4
49583;BME280;36329;48.816;44.624;2023-04-30T16:04:34;100336;;;18;86.7
49583;BME280;36329;48.816;44.624;2023-04-30T16:07:38;100338;;;18.1;86.3
49583;BME280;36329;48.816;44.624;2023-04-30T16:10:40;100341;;;18;86
49583;BME280;36329;48.816;44.624;2023-04-30T16:13:42;100342;;;18;86.3
49583;BME280;36329;48.816;44.624;2023-04-30T16:16:44;100348;;;17.9;86.8
49583;BME280;36329;48.816;44.624;2023-04-30T16:19:46;100348;;;17.7;89
49583;BME280;36329;48.816;44.624;2023-04-30T16:22:48;100361;;;17.8;88.7
49583;BME280;36329;48.816;44.624;2023-04-30T16:25:50;100366;;;17.7;88.6
49583;BME280;36329;48.816;44.624;2023-04-30T16:28:52;100364;;;17.6;89.9
49583;BME280;36329;48.816;44.624;2023-04-30T16:31:55;100359;;;17.6;89.1
49583;BME280;36329;48.816;44.624;2023-04-30T16:34:57;100361;;;17.6;88.3
49583;BME280;36329;48.816;44.624;2023-04-30T16:37:59;100362;;;17.6;88.8
49583;BME280;36329;48.816;44.624;2023-04-30T16:41:01;100356;;;17.5;88
49583;BME280;36329;48.816;44.624;2023-04-30T16:44:04;100359;;;17.5;88.3
49583;BME280;36329;48.816;44.624;2023-04-30T16:47:07;100360;;;17.6;87.2
49583;BME280;36329;48.816;44.624;2023-04-30T16:50:09;100361;;;17.6;86.4
49583;BME280;36329;48.816;44.624;2023-04-30T16:53:11;100367;;;17.7;87.1
49583;BME280;36329;48.816;44.624;2023-04-30T16:56:13;100364;;;17.6;86.6
49583;BME280;36329;48.816;44.624;2023-04-30T16:59:15;100361;;;17.5;86.8
49583;BME280;36329;48.816;44.624;2023-04-30T17:02:17;100365;;;17.5;86.3